Time;durP1;ratioP1;P1;durP2;ratioP2;P2;SDS_P1;SDS_P2;PMS_P1;PMS_P2;Temp;Humidity;BMP_temperature;BMP_pressure;BME280_temperature;BME280_humidity;BME280_pressure;Samples;Min_cycle;Max_cycle;Signal;HPM_P1;HPM_P2
2022/11/02 00:01:44;;;;;;;;;;;;;;;7.34;100.00;96845.81;4949166;28;20260;-76
2022/11/02 00:04:29;;;;;;;0.10;0.10;;;;;;;7.29;100.00;96837.66;4955465;28;19940;-75
2022/11/02 00:07:15;;;;;;;0.13;0.13;;;;;;;7.32;100.00;96831.91;4949700;28;20078;-76
2022/11/02 00:10:01;;;;;;;0.10;0.10;;;;;;;7.31;100.00;96816.94;4949981;28;20046;-75
2022/11/02 00:12:48;;;;;;;0.10;0.10;;;;;;;7.27;100.00;96826.41;4951412;28;20126;-76
2022/11/02 00:15:35;;;;;;;0.10;0.10;;;;;;;7.26;100.00;96822.94;4951645;28;20077;-76
2022/11/02 00:18:21;;;;;;;0.10;0.10;;;;;;;7.22;100.00;96831.56;4952466;28;20209;-75
2022/11/02 00:21:07;;;;;;;0.00;0.00;;;;;;;7.20;100.00;96826.47;4953065;28;20492;-76
2022/11/02 00:23:56;;;;;;;0.10;0.10;;;;;;;7.19;100.00;96819.53;4952391;28;20043;-77
2022/11/02 00:26:41;;;;;;;0.10;0.10;;;;;;;7.18;100.00;96823.22;4952114;28;20046;-76
2022/11/02 00:29:32;;;;;;;0.10;0.10;;;;;;;7.15;100.00;96817.50;4954461;28;20058;-78
2022/11/02 00:32:17;;;;;;;0.10;0.10;;;;;;;7.11;100.00;96822.47;4954262;28;20039;-77
2022/11/02 00:35:04;;;;;;;0.25;0.20;;;;;;;7.11;100.00;96821.66;4958659;28;20496;-77
2022/11/02 00:37:49;;;;;;;0.10;0.10;;;;;;;7.15;100.00;96822.81;4935802;28;20051;-76
2022/11/02 00:40:36;;;;;;;0.10;0.10;;;;;;;7.13;100.00;96827.56;4957112;28;20042;-76
2022/11/02 00:43:21;;;;;;;0.15;0.10;;;;;;;7.10;100.00;96820.03;4943653;28;20042;-76
2022/11/02 00:46:07;;;;;;;0.10;0.10;;;;;;;7.05;100.00;96826.00;4955831;28;20398;-77
2022/11/02 00:48:53;;;;;;;0.10;0.10;;;;;;;7.06;100.00;96813.50;4941352;28;20066;-77
2022/11/02 00:51:39;;;;;;;0.10;0.10;;;;;;;7.09;100.00;96810.41;4944678;28;20137;-77
2022/11/02 00:54:25;;;;;;;0.10;0.10;;;;;;;7.16;100.00;96813.81;4944839;28;20043;-73
2022/11/02 00:57:13;;;;;;;0.10;0.10;;;;;;;7.12;100.00;96807.31;4953311;28;20874;-74
2022/11/02 00:59:59;;;;;;;0.10;0.10;;;;;;;7.20;100.00;96820.34;4940332;28;20488;-76
2022/11/02 01:02:45;;;;;;;0.10;0.10;;;;;;;7.43;100.00;96809.88;4954692;28;20027;-74
2022/11/02 01:05:31;;;;;;;0.10;0.10;;;;;;;7.63;100.00;96812.34;4957111;28;20356;-74
2022/11/02 01:08:16;;;;;;;0.13;0.13;;;;;;;7.80;100.00;96815.25;4951844;28;20047;-76
2022/11/02 01:11:28;;;;;;;0.10;0.10;;;;;;;7.98;100.00;96804.56;4952735;28;20454;-75
2022/11/02 01:14:14;;;;;;;0.22;0.20;;;;;;;8.04;100.00;96816.19;4953970;28;20047;-75
2022/11/02 01:17:00;;;;;;;0.10;0.10;;;;;;;8.14;100.00;96818.34;4946013;28;20618;-75
2022/11/02 01:19:46;;;;;;;0.10;0.10;;;;;;;8.25;100.00;96817.56;4954293;28;20039;-74
2022/11/02 01:22:32;;;;;;;0.10;0.10;;;;;;;8.29;100.00;96810.75;4954774;28;20129;-73
2022/11/02 01:25:18;;;;;;;0.10;0.10;;;;;;;8.30;100.00;96804.38;4953780;28;20113;-75
2022/11/02 01:28:04;;;;;;;0.10;0.10;;;;;;;8.25;100.00;96812.22;4955008;28;20174;-74
2022/11/02 01:30:49;;;;;;;0.10;0.10;;;;;;;8.31;100.00;96811.34;4954187;28;20043;-73
2022/11/02 01:33:36;;;;;;;0.10;0.10;;;;;;;8.37;100.00;96800.63;4952688;28;20483;-73
2022/11/02 01:36:22;;;;;;;0.10;0.10;;;;;;;8.35;100.00;96783.22;4955347;28;20534;-74
2022/11/02 01:39:10;;;;;;;0.10;0.10;;;;;;;8.31;100.00;96790.81;4953118;28;20057;-76
2022/11/02 01:41:56;;;;;;;0.20;0.17;;;;;;;8.28;100.00;96795.81;4952530;28;20546;-75
2022/11/02 01:44:45;;;;;;;0.10;0.10;;;;;;;8.25;100.00;96796.22;4957149;28;20046;-74
2022/11/02 01:47:37;;;;;;;0.10;0.10;;;;;;;8.32;100.00;96802.28;4940853;28;20046;-75
2022/11/02 01:50:26;;;;;;;0.10;0.10;;;;;;;8.38;100.00;96796.91;4939149;28;20039;-74
2022/11/02 01:53:12;;;;;;;0.10;0.10;;;;;;;8.46;100.00;96805.63;4952159;28;20102;-74
2022/11/02 01:55:59;;;;;;;0.10;0.10;;;;;;;8.51;100.00;96797.78;4953777;28;20157;-75
2022/11/02 01:58:51;;;;;;;0.10;0.10;;;;;;;8.50;100.00;96788.97;4938866;28;20117;-75
2022/11/02 02:01:36;;;;;;;;;;;;;;;8.55;100.00;96794.41;4953016;28;20153;-74
2022/11/02 02:04:23;;;;;;;0.10;0.10;;;;;;;8.63;100.00;96782.59;4936333;28;20366;-75
2022/11/02 02:07:11;;;;;;;0.10;0.10;;;;;;;8.67;100.00;96777.66;4952809;28;20032;-74
2022/11/02 02:09:59;;;;;;;0.20;0.20;;;;;;;8.65;100.00;96783.22;4938986;28;20406;-75
2022/11/02 02:12:46;;;;;;;0.10;0.10;;;;;;;8.65;100.00;96776.03;4951703;28;20043;-76
2022/11/02 02:15:52;;;;;;;0.10;0.10;;;;;;;8.63;100.00;96767.41;4930761;28;20046;-76
2022/11/02 02:18:49;;;;;;;0.10;0.10;;;;;;;8.64;100.00;96778.91;4939470;28;20621;-73
2022/11/02 02:21:52;;;;;;;0.10;0.10;;;;;;;8.68;100.00;96758.72;4936523;28;20140;-74
2022/11/02 02:25:22;;;;;;;0.10;0.10;;;;;;;8.69;100.00;96781.69;4937894;28;20406;-75
2022/11/02 02:28:27;;;;;;;0.10;0.10;;;;;;;8.72;100.00;96772.44;4937277;28;20118;-75
2022/11/02 02:31:39;;;;;;;0.10;0.10;;;;;;;8.72;100.00;96759.09;4950439;28;20356;-76
2022/11/02 02:34:37;;;;;;;0.10;0.10;;;;;;;8.67;100.00;96764.31;4938822;28;20490;-76
2022/11/02 02:37:35;;;;;;;0.10;0.10;;;;;;;8.68;100.00;96769.41;4952288;28;20070;-75
2022/11/02 02:40:32;;;;;;;0.10;0.10;;;;;;;8.76;100.00;96782.41;4953398;28;20268;-75
2022/11/02 02:43:27;;;;;;;0.10;0.10;;;;;;;8.87;100.00;96772.78;4938952;28;20050;-76
2022/11/02 02:46:35;;;;;;;0.10;0.10;;;;;;;8.89;100.00;96770.72;4951175;28;20617;-76
2022/11/02 02:49:26;;;;;;;0.10;0.10;;;;;;;8.88;100.00;96783.25;4949942;28;20042;-76
2022/11/02 02:52:14;;;;;;;0.10;0.10;;;;;;;8.88;100.00;96777.94;4933447;28;20039;-75
2022/11/02 02:55:04;;;;;;;0.10;0.10;;;;;;;8.98;100.00;96784.56;4936312;28;20513;-77
2022/11/02 02:57:51;;;;;;;0.10;0.10;;;;;;;9.01;100.00;96787.56;4954606;28;20312;-75
2022/11/02 03:00:38;;;;;;;0.10;0.10;;;;;;;8.97;100.00;96783.75;4950153;28;20756;-75
2022/11/02 03:03:26;;;;;;;0.10;0.10;;;;;;;9.10;100.00;96802.19;4950375;28;20031;-76
2022/11/02 03:06:23;;;;;;;0.10;0.10;;;;;;;9.27;100.00;96806.88;4935327;28;20151;-76
2022/11/02 03:09:23;;;;;;;0.20;0.20;;;;;;;9.30;100.00;96793.84;4930898;28;20047;-75
2022/11/02 03:12:20;;;;;;;0.10;0.10;;;;;;;9.28;100.00;96798.63;4936680;28;20105;-75
2022/11/02 03:15:15;;;;;;;0.10;0.10;;;;;;;9.33;100.00;96792.56;4936311;28;20489;-75
2022/11/02 03:18:15;;;;;;;0.10;0.10;;;;;;;9.21;100.00;96800.59;4936043;28;20134;-76
2022/11/02 03:21:12;;;;;;;0.10;0.10;;;;;;;9.32;100.00;96801.63;4936700;28;20030;-76
2022/11/02 03:24:07;;;;;;;0.10;0.10;;;;;;;9.32;100.00;96790.94;4955369;28;20039;-77
2022/11/02 03:27:04;;;;;;;0.10;0.10;;;;;;;9.31;100.00;96789.31;4940166;28;20039;-75
2022/11/02 03:30:06;;;;;;;0.10;0.10;;;;;;;9.27;100.00;96794.34;4949042;28;20554;-75
2022/11/02 03:33:05;;;;;;;0.10;0.10;;;;;;;9.10;100.00;96802.19;4945731;28;20398;-75
2022/11/02 03:35:56;;;;;;;0.10;0.10;;;;;;;8.86;100.00;96797.84;4939171;28;20109;-75
2022/11/02 03:38:46;;;;;;;0.10;0.10;;;;;;;8.70;100.00;96801.19;4937004;28;20710;-77
2022/11/02 03:41:36;;;;;;;0.10;0.10;;;;;;;8.59;100.00;96810.78;4954129;28;20053;-77
2022/11/02 03:44:25;;;;;;;0.13;0.10;;;;;;;8.50;100.00;96812.97;4950416;28;20873;-76
2022/11/02 03:47:14;;;;;;;0.10;0.10;;;;;;;8.36;100.00;96804.31;4936240;28;20126;-76
2022/11/02 03:50:05;;;;;;;0.10;0.10;;;;;;;8.38;100.00;96815.56;4935335;28;20042;-76
2022/11/02 03:53:05;;;;;;;0.10;0.10;;;;;;;8.35;100.00;96818.72;4949561;28;20073;-76
2022/11/02 03:55:55;;;;;;;0.10;0.10;;;;;;;8.35;100.00;96817.88;4950659;28;20047;-75
2022/11/02 03:58:41;;;;;;;0.10;0.10;;;;;;;8.32;100.00;96829.78;4936044;28;20047;-77
2022/11/02 04:01:28;;;;;;;0.10;0.10;;;;;;;8.28;100.00;96827.78;4949791;28;20047;-77
2022/11/02 04:04:15;;;;;;;0.20;0.20;;;;;;;8.24;100.00;96832.75;4935789;28;20046;-77
2022/11/02 04:07:03;;;;;;;0.20;0.20;;;;;;;8.29;100.00;96830.22;4949961;28;20557;-76
2022/11/02 04:09:49;;;;;;;0.10;0.10;;;;;;;8.33;100.00;96838.63;4940149;28;20085;-76
2022/11/02 04:15:39;;;;;;;0.10;0.10;;;;;;;8.47;100.00;96850.75;4936501;28;20047;-75
2022/11/02 04:21:30;;;;;;;0.10;0.10;;;;;;;8.72;100.00;96847.16;4936219;28;20058;-77
2022/11/02 04:27:22;;;;;;;0.10;0.10;;;;;;;8.87;100.00;96847.50;4938721;28;20050;-77
2022/11/02 04:30:10;;;;;;;0.10;0.10;;;;;;;8.90;100.00;96845.22;4920301;28;20048;-77
2022/11/02 04:36:38;;;;;;;0.10;0.10;;;;;;;8.64;100.00;96845.63;4849156;29;20061;-75
2022/11/02 04:39:24;;;;;;;0.10;0.10;;;;;;;8.48;100.00;96847.06;4911627;29;20303;-76
2022/11/02 04:42:11;;;;;;;0.10;0.10;;;;;;;8.37;100.00;96837.13;4888534;29;20070;-76
2022/11/02 04:44:57;;;;;;;0.20;0.20;;;;;;;8.34;100.00;96846.38;4914878;29;20044;-77
2022/11/02 04:48:06;;;;;;;0.13;0.13;;;;;;;8.28;100.00;96843.78;4915327;29;20706;-77
2022/11/02 04:50:53;;;;;;;0.10;0.10;;;;;;;8.29;100.00;96848.09;4922808;28;20103;-75
2022/11/02 04:53:38;;;;;;;0.10;0.10;;;;;;;8.22;100.00;96845.50;4910246;29;20059;-77
2022/11/02 04:56:28;;;;;;;0.10;0.10;;;;;;;8.19;100.00;96855.81;4913825;28;20039;-76
2022/11/02 04:59:14;;;;;;;0.10;0.10;;;;;;;8.18;100.00;96860.31;4899092;29;20039;-76
2022/11/02 05:02:01;;;;;;;0.10;0.10;;;;;;;8.13;100.00;96852.16;4903421;29;20518;-77
2022/11/02 05:04:47;;;;;;;0.10;0.10;;;;;;;8.13;100.00;96867.34;4912310;29;20067;-76
2022/11/02 05:07:34;;;;;;;0.17;0.15;;;;;;;8.03;100.00;96873.22;4915533;29;20412;-76
2022/11/02 05:10:20;;;;;;;0.10;0.10;;;;;;;8.09;100.00;96870.47;4912901;29;20043;-77
2022/11/02 05:13:09;;;;;;;0.10;0.10;;;;;;;8.14;100.00;96872.47;4901633;29;20104;-76
2022/11/02 05:15:56;;;;;;;0.10;0.10;;;;;;;8.15;100.00;96870.59;4918222;28;20048;-76
2022/11/02 05:18:42;;;;;;;0.20;0.20;;;;;;;8.18;100.00;96868.31;4906061;29;20099;-76
2022/11/02 05:21:29;;;;;;;0.10;0.10;;;;;;;8.20;100.00;96873.44;4892097;29;20032;-75
2022/11/02 05:24:15;;;;;;;0.10;0.10;;;;;;;8.14;100.00;96879.63;4915564;29;20058;-76
2022/11/02 05:27:01;;;;;;;0.10;0.10;;;;;;;8.15;100.00;96879.41;4915972;29;20418;-77
2022/11/02 05:29:49;;;;;;;0.10;0.10;;;;;;;8.15;100.00;96883.94;4941189;28;20059;-74
2022/11/02 05:32:35;;;;;;;0.20;0.20;;;;;;;8.15;100.00;96881.25;4914925;28;20468;-77
2022/11/02 05:35:21;;;;;;;0.10;0.10;;;;;;;8.19;100.00;96901.13;4924771;28;20078;-76
2022/11/02 05:38:08;;;;;;;0.10;0.10;;;;;;;8.18;100.00;96897.66;4924030;28;20153;-75
2022/11/02 05:40:56;;;;;;;0.10;0.10;;;;;;;8.14;100.00;96890.31;4916239;28;20050;-75
2022/11/02 05:43:43;;;;;;;0.10;0.10;;;;;;;8.19;100.00;96904.59;4922568;28;20037;-75
2022/11/02 05:46:32;;;;;;;0.10;0.10;;;;;;;8.06;100.00;96897.56;4935854;28;20539;-77
2022/11/02 05:49:18;;;;;;;0.10;0.10;;;;;;;8.01;100.00;96908.06;4937058;28;20053;-76
2022/11/02 05:52:04;;;;;;;0.10;0.10;;;;;;;7.95;100.00;96908.16;4937315;28;20043;-75
2022/11/02 05:54:49;;;;;;;0.10;0.10;;;;;;;7.93;100.00;96903.00;4938097;28;20102;-76
2022/11/02 05:57:35;;;;;;;0.10;0.10;;;;;;;7.90;100.00;96906.13;4936898;28;20043;-75
2022/11/02 06:00:23;;;;;;;0.10;0.10;;;;;;;7.99;100.00;96919.97;4936675;28;20049;-76
2022/11/02 06:03:08;;;;;;;0.10;0.10;;;;;;;7.96;100.00;96915.91;4939426;28;20515;-75
2022/11/02 06:05:56;;;;;;;0.10;0.10;;;;;;;8.09;100.00;96922.94;4935478;28;20043;-75
2022/11/02 06:08:42;;;;;;;0.10;0.10;;;;;;;8.04;100.00;96928.13;4933839;28;20130;-76
2022/11/02 06:11:28;;;;;;;0.10;0.10;;;;;;;7.98;100.00;96937.00;4936373;28;20067;-76
2022/11/02 06:14:13;;;;;;;0.10;0.10;;;;;;;7.91;100.00;96913.09;4922048;28;20480;-76
2022/11/02 06:16:59;;;;;;;0.13;0.10;;;;;;;7.93;100.00;96927.00;4937005;28;20628;-77
2022/11/02 06:19:45;;;;;;;0.03;0.03;;;;;;;7.88;100.00;96928.72;4935561;28;20467;-75
2022/11/02 06:22:38;;;;;;;0.20;0.20;;;;;;;7.82;100.00;96930.41;4934211;28;20879;-76
2022/11/02 06:25:27;;;;;;;0.10;0.10;;;;;;;7.80;100.00;96935.13;4934119;28;20499;-75
2022/11/02 06:28:13;;;;;;;0.10;0.10;;;;;;;7.77;100.00;96925.72;4932998;28;20492;-75
2022/11/02 06:30:59;;;;;;;0.10;0.10;;;;;;;7.79;100.00;96937.00;4939682;28;20057;-77
2022/11/02 06:33:45;;;;;;;0.10;0.10;;;;;;;7.80;100.00;96937.81;4935778;28;20086;-76
2022/11/02 06:36:30;;;;;;;0.10;0.10;;;;;;;7.72;100.00;96935.41;4955079;28;20051;-77
2022/11/02 06:39:17;;;;;;;0.10;0.10;;;;;;;7.70;100.00;96948.94;4955444;28;20061;-77
2022/11/02 06:42:03;;;;;;;0.10;0.10;;;;;;;7.69;100.00;96955.28;4953307;28;20043;-76
2022/11/02 06:44:48;;;;;;;0.10;0.10;;;;;;;7.64;100.00;96951.69;4956299;28;20047;-76
2022/11/02 06:47:36;;;;;;;0.10;0.10;;;;;;;7.60;100.00;96955.78;4958129;28;20328;-77
2022/11/02 06:50:23;;;;;;;0.10;0.10;;;;;;;7.61;100.00;96973.41;4952070;28;20058;-76
2022/11/02 06:53:10;;;;;;;0.10;0.10;;;;;;;7.60;100.00;96967.25;4931209;28;20485;-76
2022/11/02 06:55:57;;;;;;;0.10;0.10;;;;;;;7.62;100.00;96975.03;4954714;28;20038;-76
2022/11/02 06:58:42;;;;;;;0.10;0.10;;;;;;;7.56;100.00;96957.28;4953809;28;20106;-76
2022/11/02 07:01:28;;;;;;;0.10;0.10;;;;;;;7.59;100.00;96986.94;4954755;28;20034;-76
2022/11/02 07:04:14;;;;;;;0.10;0.10;;;;;;;7.62;100.00;96981.16;4954391;28;20167;-77
2022/11/02 07:07:00;;;;;;;0.10;0.10;;;;;;;7.62;100.00;96983.84;4929320;28;20051;-76
2022/11/02 07:09:46;;;;;;;0.10;0.10;;;;;;;7.67;100.00;96992.00;4942269;28;20046;-76
2022/11/02 07:12:32;;;;;;;0.10;0.10;;;;;;;7.71;100.00;96989.72;4943605;28;20055;-76
2022/11/02 07:15:18;;;;;;;0.10;0.10;;;;;;;7.71;100.00;96995.06;4954573;28;20108;-76
2022/11/02 07:18:05;;;;;;;0.08;0.08;;;;;;;7.72;100.00;97012.66;4954929;28;20086;-76
2022/11/02 07:20:50;;;;;;;0.10;0.10;;;;;;;7.77;100.00;97013.63;4956615;28;20388;-76
2022/11/02 07:23:37;;;;;;;0.10;0.10;;;;;;;7.80;100.00;97012.41;4951954;28;20347;-74
2022/11/02 07:26:22;;;;;;;0.10;0.10;;;;;;;7.87;100.00;97023.81;4954595;28;20684;-75
2022/11/02 07:29:09;;;;;;;0.10;0.10;;;;;;;7.87;100.00;97025.69;4952680;28;20319;-75
2022/11/02 07:31:55;;;;;;;0.10;0.10;;;;;;;7.97;100.00;97026.00;4955140;28;20047;-75
2022/11/02 07:34:41;;;;;;;0.10;0.10;;;;;;;8.03;100.00;97028.59;4950921;28;20042;-76
2022/11/02 07:37:29;;;;;;;0.10;0.10;;;;;;;8.08;100.00;97030.59;4953702;28;20047;-75
2022/11/02 07:40:14;;;;;;;0.10;0.10;;;;;;;8.15;100.00;97041.22;4953302;28;20131;-76
2022/11/02 07:43:01;;;;;;;0.10;0.10;;;;;;;8.25;100.00;97041.53;4956831;28;20043;-77
2022/11/02 07:45:55;;;;;;;0.10;0.10;;;;;;;8.23;100.00;97038.25;4956101;28;20118;-77
2022/11/02 07:48:40;;;;;;;0.10;0.10;;;;;;;8.32;100.00;97042.28;4951277;28;20506;-77
2022/11/02 07:51:26;;;;;;;0.10;0.10;;;;;;;8.36;100.00;97040.84;4957507;28;20511;-77
2022/11/02 07:54:12;;;;;;;0.13;0.13;;;;;;;8.42;100.00;97041.81;4952267;28;20073;-76
2022/11/02 07:56:58;;;;;;;0.10;0.10;;;;;;;8.35;100.00;97049.88;4956580;28;20514;-78
2022/11/02 07:59:44;;;;;;;0.10;0.10;;;;;;;8.45;100.00;97052.03;4953723;28;20042;-76
2022/11/02 08:02:30;;;;;;;0.10;0.10;;;;;;;8.44;100.00;97059.22;4951635;28;20467;-76
2022/11/02 08:05:15;;;;;;;0.20;0.20;;;;;;;8.52;100.00;97050.94;4955325;28;20217;-76
2022/11/02 08:08:04;;;;;;;0.10;0.10;;;;;;;8.60;100.00;97072.00;4952959;28;20538;-76
2022/11/02 08:10:51;;;;;;;0.10;0.10;;;;;;;8.67;100.00;97063.91;4956577;28;20050;-78
2022/11/02 08:13:37;;;;;;;0.10;0.10;;;;;;;8.72;100.00;97064.09;4953827;28;20161;-77
2022/11/02 08:16:23;;;;;;;0.13;0.13;;;;;;;8.81;100.00;97067.28;4956770;28;20134;-76
2022/11/02 08:19:09;;;;;;;0.10;0.10;;;;;;;8.82;100.00;97068.91;4953403;28;20167;-76
2022/11/02 08:21:55;;;;;;;0.20;0.20;;;;;;;8.85;100.00;97063.91;4954187;28;20039;-76
2022/11/02 08:24:41;;;;;;;0.10;0.10;;;;;;;8.95;100.00;97063.41;4953964;28;20046;-74
2022/11/02 08:27:26;;;;;;;0.10;0.10;;;;;;;9.07;100.00;97066.13;4938076;28;20396;-75
2022/11/02 08:30:12;;;;;;;0.20;0.20;;;;;;;9.14;100.00;97070.34;4950413;28;20843;-75
2022/11/02 08:33:04;;;;;;;0.10;0.10;;;;;;;9.26;100.00;97080.28;4952800;28;20195;-77
2022/11/02 08:35:50;;;;;;;;;;;;;;;9.33;100.00;97081.00;4915988;28;20546;-75
2022/11/02 08:38:36;;;;;;;0.10;0.10;;;;;;;9.36;100.00;97085.91;4947940;28;19922;-75
2022/11/02 08:41:22;;;;;;;0.10;0.10;;;;;;;9.44;100.00;97085.59;4954230;28;20331;-76
2022/11/02 08:44:08;;;;;;;0.20;0.20;;;;;;;9.55;100.00;97087.50;4955207;28;20081;-75
2022/11/02 08:46:54;;;;;;;0.10;0.10;;;;;;;9.65;100.00;97090.47;4956702;28;20555;-74
2022/11/02 08:49:40;;;;;;;0.10;0.10;;;;;;;9.72;100.00;97095.69;4948989;28;20483;-76
2022/11/02 08:52:26;;;;;;;0.10;0.10;;;;;;;9.86;100.00;97107.81;4952408;28;20046;-75
2022/11/02 08:55:12;;;;;;;0.10;0.10;;;;;;;9.96;100.00;97096.56;4953263;28;20668;-75
2022/11/02 08:57:59;;;;;;;0.10;0.10;;;;;;;10.05;100.00;97093.34;4957168;28;20043;-76
2022/11/02 09:00:54;;;;;;;0.20;0.20;;;;;;;10.21;100.00;97091.06;4954285;28;20081;-75
2022/11/02 09:03:40;;;;;;;0.10;0.10;;;;;;;10.04;100.00;97093.59;4952850;28;20223;-76
2022/11/02 09:06:26;;;;;;;0.10;0.10;;;;;;;10.12;100.00;97105.81;4953282;28;20039;-75
2022/11/02 09:09:12;;;;;;;0.20;0.10;;;;;;;10.53;100.00;97103.09;4953215;28;20054;-75
2022/11/02 09:11:57;;;;;;;0.10;0.10;;;;;;;10.92;100.00;97100.75;4956170;28;20539;-75
2022/11/02 09:14:43;;;;;;;0.10;0.10;;;;;;;10.99;100.00;97106.81;4955494;28;20044;-75
2022/11/02 09:17:29;;;;;;;0.15;0.15;;;;;;;11.20;100.00;97109.88;4609309;28;10000092;-76
2022/11/02 09:20:16;;;;;;;0.28;0.20;;;;;;;11.60;100.00;97100.00;4612886;28;10000690;-75
2022/11/02 09:23:02;;;;;;;0.25;0.20;;;;;;;11.95;100.00;97113.28;4954459;28;20039;-76
2022/11/02 09:25:49;;;;;;;0.20;0.20;;;;;;;12.32;100.00;97106.66;4954367;28;20050;-75
2022/11/02 09:28:35;;;;;;;0.20;0.20;;;;;;;13.77;100.00;97101.91;4950976;28;20225;-75
2022/11/02 09:31:21;;;;;;;0.10;0.10;;;;;;;13.13;100.00;97113.22;4956640;28;20046;-76
2022/11/02 09:34:06;;;;;;;0.20;0.20;;;;;;;12.02;100.00;97126.53;4955120;28;20050;-76
2022/11/02 09:36:52;;;;;;;0.10;0.10;;;;;;;12.41;100.00;97124.78;4949517;28;20039;-76
2022/11/02 09:39:41;;;;;;;0.10;0.10;;;;;;;12.27;100.00;97137.69;4952674;28;20435;-76
2022/11/02 09:43:09;;;;;;;0.10;0.10;;;;;;;12.04;100.00;97153.94;4954143;28;20049;-76
2022/11/02 09:46:18;;;;;;;0.10;0.10;;;;;;;11.84;100.00;97146.34;4921623;28;20043;-76
2022/11/02 09:49:25;;;;;;;0.22;0.22;;;;;;;13.00;100.00;97140.47;4951068;28;20054;-77
2022/11/02 09:56:13;;;;;;;0.10;0.10;;;;;;;13.70;100.00;97144.34;4950113;28;20047;-76
2022/11/02 09:59:03;;;;;;;0.10;0.10;;;;;;;12.85;100.00;97151.78;4953777;28;20077;-77
2022/11/02 10:02:22;;;;;;;0.10;0.10;;;;;;;13.74;100.00;97159.72;4952204;28;20133;-76
2022/11/02 10:05:38;;;;;;;0.15;0.15;;;;;;;13.69;100.00;97146.19;4955217;28;20050;-77
2022/11/02 10:08:50;;;;;;;0.08;0.08;;;;;;;13.47;100.00;97153.47;4955762;28;20045;-75
2022/11/02 10:11:58;;;;;;;0.10;0.10;;;;;;;12.83;100.00;97154.69;4953066;28;20444;-76
2022/11/02 10:14:55;;;;;;;0.20;0.20;;;;;;;14.53;100.00;97161.06;4954852;28;20046;-76
2022/11/02 10:17:44;;;;;;;0.20;0.20;;;;;;;16.75;96.18;97159.63;4956024;28;20069;-77
2022/11/02 10:20:40;;;;;;;0.20;0.20;;;;;;;17.67;87.70;97145.94;4952772;28;20419;-77
2022/11/02 10:23:32;;;;;;;0.10;0.10;;;;;;;15.88;93.59;97156.78;4940420;28;20039;-76
2022/11/02 10:26:22;;;;;;;0.20;0.20;;;;;;;15.87;100.00;97155.16;4956013;28;20046;-76
2022/11/02 10:29:18;;;;;;;0.10;0.10;;;;;;;16.82;89.18;97160.19;4954232;28;20214;-77
2022/11/02 10:32:04;;;;;;;0.10;0.10;;;;;;;16.83;95.26;97156.38;4952940;28;20043;-77
2022/11/02 10:34:50;;;;;;;0.10;0.10;;;;;;;17.90;90.61;97161.56;4953617;28;20046;-77
2022/11/02 10:37:52;;;;;;;0.10;0.10;;;;;;;17.46;82.99;97145.19;4955514;28;20130;-76
2022/11/02 10:40:57;;;;;;;0.20;0.20;;;;;;;20.61;63.65;97144.19;4955417;28;20079;-77
2022/11/02 10:44:01;;;;;;;0.10;0.10;;;;;;;18.63;70.24;97139.94;4958310;28;20054;-76
2022/11/02 10:47:46;;;;;;;0.20;0.20;;;;;;;22.68;47.27;97139.56;4952658;28;20038;-77
2022/11/02 10:50:55;;;;;;;0.20;0.20;;;;;;;24.10;39.20;97132.22;4940445;28;20063;-77
2022/11/02 10:53:46;;;;;;;0.20;0.20;;;;;;;25.83;36.45;97121.00;4943462;28;20325;-78
2022/11/02 10:56:33;;;;;;;0.10;0.10;;;;;;;25.99;35.90;97110.25;4956718;28;20047;-77
2022/11/02 10:59:22;;;;;;;0.00;0.00;;;;;;;24.45;35.29;97128.41;4955266;28;20070;-77
2022/11/02 11:02:13;;;;;;;0.00;0.00;;;;;;;20.71;44.02;97135.88;4957503;28;20121;-77
2022/11/02 11:05:15;;;;;;;0.00;0.00;;;;;;;18.47;48.39;97157.41;4939576;28;20054;-77
2022/11/02 11:08:01;;;;;;;0.20;0.20;;;;;;;20.58;46.56;97134.72;4942302;28;20047;-76
2022/11/02 11:10:47;;;;;;;0.20;0.20;;;;;;;24.06;41.64;97125.78;4958366;28;20039;-76
2022/11/02 11:13:33;;;;;;;0.20;0.20;;;;;;;26.46;32.79;97116.41;4954914;28;20073;-77
2022/11/02 11:16:34;;;;;;;0.00;0.00;;;;;;;26.28;32.13;97114.91;4958101;28;20050;-77
2022/11/02 11:19:57;;;;;;;0.20;0.20;;;;;;;24.12;36.34;97125.31;4944509;28;20077;-76
2022/11/02 11:22:42;;;;;;;0.20;0.20;;;;;;;26.85;31.22;97126.06;4892689;29;20044;-78
2022/11/02 11:25:28;;;;;;;0.10;0.10;;;;;;;28.02;29.62;97121.00;4941542;28;20047;-78
2022/11/02 11:28:27;;;;;;;0.10;0.10;;;;;;;29.16;26.56;97117.22;4615271;28;10000343;-78
2022/11/02 11:31:15;;;;;;;0.10;0.10;;;;;;;29.44;26.46;97114.41;4955037;28;20035;-77
2022/11/02 11:34:01;;;;;;;0.10;0.10;;;;;;;28.77;26.10;97120.47;4954138;28;20043;-77
2022/11/02 11:36:47;;;;;;;0.00;0.00;;;;;;;24.27;30.68;97131.44;4955341;28;20043;-77
2022/11/02 11:39:34;;;;;;;0.00;0.00;;;;;;;22.05;36.11;97124.09;4958449;28;20050;-77
2022/11/02 11:42:27;;;;;;;0.00;0.00;;;;;;;21.90;35.51;97125.22;4942078;28;20615;-76
2022/11/02 11:45:21;;;;;;;0.10;0.10;;;;;;;20.37;41.40;97121.69;4954949;28;20042;-77
2022/11/02 11:48:25;;;;;;;0.10;0.10;;;;;;;19.14;43.65;97139.53;4938988;28;20558;-78
2022/11/02 11:51:37;;;;;;;0.17;0.17;;;;;;;23.19;37.25;97127.38;4934792;28;20457;-77
2022/11/02 11:54:30;;;;;;;0.10;0.10;;;;;;;26.39;31.75;97118.91;4951464;28;20042;-78
2022/11/02 11:57:27;;;;;;;0.15;0.15;;;;;;;29.95;26.77;97113.31;4957394;28;20072;-78
2022/11/02 12:00:31;;;;;;;0.00;0.00;;;;;;;28.39;26.14;97109.94;4936247;28;20082;-78
2022/11/02 12:03:19;;;;;;;0.10;0.10;;;;;;;27.34;28.74;97128.16;4954438;28;20054;-77
2022/11/02 12:06:24;;;;;;;0.08;0.00;;;;;;;25.54;30.13;97119.84;4952658;28;20046;-76
2022/11/02 12:09:28;;;;;;;0.00;0.00;;;;;;;21.62;37.32;97127.97;4954598;28;20317;-77
2022/11/02 12:12:35;;;;;;;0.00;0.00;;;;;;;19.71;44.01;97132.38;4957590;28;20180;-76
2022/11/02 12:15:48;;;;;;;0.00;0.00;;;;;;;18.84;53.42;97139.81;4949264;28;20110;-77
2022/11/02 12:19:11;;;;;;;0.10;0.10;;;;;;;18.39;55.72;97141.75;4951650;28;20100;-77
2022/11/02 12:22:09;;;;;;;0.10;0.10;;;;;;;21.02;44.37;97124.47;4939373;28;20050;-76
2022/11/02 12:25:16;;;;;;;0.13;0.13;;;;;;;22.87;39.54;97123.03;4948302;28;20121;-77
2022/11/02 12:28:21;;;;;;;0.00;0.00;;;;;;;21.56;40.06;97109.34;4951524;28;20054;-77
2022/11/02 12:31:32;;;;;;;0.10;0.10;;;;;;;17.11;69.66;97119.03;4952684;28;20082;-76
2022/11/02 12:34:26;;;;;;;;;;;;;;;16.67;74.87;97119.63;4956246;28;20261;-76
2022/11/02 12:37:24;;;;;;;0.20;0.20;;;;;;;18.31;68.04;97120.69;4952964;28;20525;-77
2022/11/02 12:40:29;;;;;;;0.10;0.10;;;;;;;20.05;48.13;97109.66;4948566;28;20046;-77
2022/11/02 12:43:36;;;;;;;0.10;0.10;;;;;;;20.97;47.29;97108.25;4952216;28;20700;-77
2022/11/02 12:46:52;;;;;;;0.25;0.25;;;;;;;25.44;35.71;97094.72;4941188;28;20046;-76
2022/11/02 12:50:15;;;;;;;0.20;0.20;;;;;;;26.94;30.53;97090.28;4929709;28;20509;-77
2022/11/02 12:53:16;;;;;;;0.10;0.10;;;;;;;29.73;29.23;97083.66;4958514;28;20086;-78
2022/11/02 12:56:05;;;;;;;0.10;0.10;;;;;;;29.61;26.15;97084.53;4941260;28;20297;-77
2022/11/02 12:58:51;;;;;;;0.10;0.10;;;;;;;26.94;30.73;97102.06;4939181;28;20511;-77
2022/11/02 13:01:39;;;;;;;0.10;0.10;;;;;;;28.03;29.27;97092.34;4957339;28;20043;-76
2022/11/02 13:04:34;;;;;;;0.00;0.00;;;;;;;23.29;32.46;97094.38;4952819;28;20061;-77
2022/11/02 13:07:41;;;;;;;0.10;0.00;;;;;;;19.33;43.41;97109.75;4954320;28;20058;-76
2022/11/02 13:10:32;;;;;;;0.00;0.00;;;;;;;17.56;57.62;97099.13;4953314;28;20058;-76
2022/11/02 13:13:35;;;;;;;0.08;0.08;;;;;;;16.48;67.78;97107.72;4956369;28;20124;-76
2022/11/02 13:16:32;;;;;;;0.00;0.00;;;;;;;18.61;52.83;97093.34;4961957;28;20042;-75
2022/11/02 13:19:37;;;;;;;0.10;0.10;;;;;;;17.64;63.77;97097.75;4950002;28;20675;-75
2022/11/02 13:22:32;;;;;;;0.10;0.10;;;;;;;18.85;54.90;97087.19;4959336;28;20395;-76
2022/11/02 13:25:22;;;;;;;0.10;0.10;;;;;;;18.97;52.59;97084.88;4955943;28;20728;-76
2022/11/02 13:28:29;;;;;;;0.10;0.10;;;;;;;18.44;55.33;97087.50;4955163;28;20045;-76
2022/11/02 13:31:33;;;;;;;0.10;0.10;;;;;;;17.19;63.90;97084.13;4952478;28;20093;-75
2022/11/02 13:34:32;;;;;;;0.10;0.10;;;;;;;17.57;63.43;97081.81;4588385;28;10001018;-76
2022/11/02 13:37:33;;;;;;;0.10;0.10;;;;;;;17.87;58.46;97070.06;4957494;28;20063;-76
2022/11/02 13:40:23;;;;;;;0.10;0.10;;;;;;;17.40;64.25;97063.22;4958256;28;20249;-77
2022/11/02 13:43:31;;;;;;;0.10;0.10;;;;;;;16.43;68.38;97071.53;4955657;28;20039;-75
2022/11/02 13:46:45;;;;;;;0.10;0.10;;;;;;;15.29;75.93;97096.91;4956424;28;20399;-76